createdAt,value
2022-08-21T00:03:42.369Z,0
2022-08-21T00:42:11.078Z,0
2022-08-21T00:51:48.002Z,0
2022-08-21T01:01:25.251Z,0
2022-08-21T01:20:38.998Z,0
2022-08-21T01:59:07.111Z,0
2022-08-21T02:08:44.590Z,0
2022-08-21T02:18:21.521Z,0
2022-08-21T02:37:35.463Z,0
2022-08-21T02:47:12.603Z,0
2022-08-21T02:56:49.689Z,0
2022-08-21T03:25:41.190Z,0
2022-08-21T03:35:18.138Z,0
2022-08-21T03:44:55.407Z,0
2022-08-21T03:54:32.243Z,0
2022-08-21T04:04:09.878Z,0
2022-08-21T04:13:47.452Z,5.63
2022-08-21T04:23:25.114Z,5.63
2022-08-21T04:33:02.283Z,11.25
2022-08-21T04:42:39.536Z,16.88
2022-08-21T04:52:16.721Z,33.75
2022-08-21T05:01:54.202Z,33.75
2022-08-21T05:11:31.741Z,45
2022-08-21T05:21:09.226Z,50.63
2022-08-21T05:30:47.013Z,50.63
2022-08-21T05:40:24.924Z,56.25
2022-08-21T05:50:02.119Z,56.25
2022-08-21T05:59:39.699Z,90
2022-08-21T06:09:17.411Z,129.38
2022-08-21T06:18:56.679Z,151.88
2022-08-21T06:28:32.172Z,185.63
2022-08-21T06:38:10.309Z,219.38
2022-08-21T07:07:04.619Z,225
2022-08-21T07:16:43.606Z,286.88
2022-08-21T07:26:22.899Z,337.5
2022-08-21T07:36:00.972Z,478.13
2022-08-21T07:55:16.224Z,405
2022-08-21T08:04:54.660Z,371.25
2022-08-21T08:14:31.736Z,309.38
2022-08-21T08:33:46.942Z,309.38
2022-08-21T08:53:02.786Z,382.5
2022-08-21T09:02:41.006Z,399.38
2022-08-21T09:12:19.180Z,410.63
2022-08-21T09:21:59.800Z,483.75
2022-08-21T09:31:38.702Z,793.13
2022-08-21T09:41:19.156Z,781.88
2022-08-21T09:50:57.343Z,1996.88
2022-08-21T10:00:47.370Z,2176.88
2022-08-21T10:10:30.153Z,1963.13
2022-08-21T10:20:13.812Z,2970
2022-08-21T10:29:57.318Z,2941.88
2022-08-21T10:39:37.032Z,2750.63
2022-08-21T10:49:14.766Z,3172.5
2022-08-21T10:58:45.000Z,2880
2022-08-21T11:08:27.596Z,905.63
2022-08-21T11:18:12.285Z,3195
2022-08-21T11:27:52.694Z,3982.5
2022-08-21T11:37:37.332Z,3121.88
2022-08-21T11:47:15.799Z,1125
2022-08-21T12:06:07.394Z,821.25
2022-08-21T12:15:36.527Z,686.25
2022-08-21T12:25:10.213Z,1980
2022-08-21T12:35:00.890Z,3695.63
2022-08-21T12:44:55.695Z,3318.75
2022-08-21T12:54:39.543Z,4038.75
2022-08-21T13:04:20.860Z,3476.25
2022-08-21T13:14:01.190Z,4376.25
2022-08-21T13:23:20.698Z,961.88
2022-08-21T13:32:52.927Z,3285
2022-08-21T13:42:35.297Z,810
2022-08-21T13:52:16.516Z,804.38
2022-08-21T14:01:49.648Z,3026.25
2022-08-21T14:11:37.689Z,2925
2022-08-21T14:21:06.814Z,2806.88
2022-08-21T14:59:48.825Z,2559.38
2022-08-21T15:18:57.073Z,2295
2022-08-21T15:28:26.122Z,916.88
2022-08-21T15:47:28.660Z,478.13
2022-08-21T16:06:53.406Z,320.63
2022-08-21T16:16:14.447Z,281.25
2022-08-21T16:25:49.367Z,236.25
2022-08-21T16:35:24.444Z,213.75
2022-08-21T16:45:00.485Z,185.63
2022-08-21T16:54:37.213Z,168.75
2022-08-21T17:04:13.915Z,146.25
2022-08-21T17:13:50.574Z,135
2022-08-21T17:23:27.335Z,118.13
2022-08-21T17:33:04.154Z,95.63
2022-08-21T17:42:40.954Z,73.13
2022-08-21T17:52:16.843Z,50.63
2022-08-21T18:01:53.521Z,33.75
2022-08-21T18:11:30.741Z,16.88
2022-08-21T18:21:06.832Z,5.63
2022-08-21T18:30:42.980Z,0
2022-08-21T18:40:19.228Z,0
2022-08-21T18:49:55.379Z,0
2022-08-21T18:59:31.134Z,0
2022-08-21T19:09:07.433Z,0
2022-08-21T19:37:57.161Z,0
2022-08-21T19:47:33.237Z,0
2022-08-21T20:06:46.515Z,0
2022-08-21T20:16:23.162Z,0
2022-08-21T20:25:59.818Z,0
2022-08-21T20:35:36.512Z,0
2022-08-21T20:45:13.683Z,0
2022-08-21T20:54:50.457Z,0
2022-08-21T21:04:27.324Z,0
2022-08-21T21:14:05.200Z,0
2022-08-21T21:23:41.239Z,0
2022-08-21T21:42:54.999Z,0
2022-08-21T22:02:09.063Z,0
2022-08-21T22:11:45.928Z,0
2022-08-21T22:30:59.757Z,0
2022-08-21T22:40:36.534Z,0
2022-08-21T22:50:13.560Z,0
2022-08-21T22:59:50.839Z,0
2022-08-21T23:19:05.101Z,0
2022-08-21T23:28:43.728Z,0
2022-08-21T23:38:19.538Z,0
2022-08-21T23:47:56.050Z,0
